createdAt,value
2017-01-02T00:00:00.371Z,0
2017-01-02T00:01:00.352Z,0
2017-01-02T00:02:00.349Z,0
2017-01-02T00:03:00.366Z,0
2017-01-02T00:04:00.373Z,0
2017-01-02T00:05:00.382Z,0
2017-01-02T00:06:00.403Z,0
2017-01-02T00:07:00.402Z,0
2017-01-02T00:08:00.409Z,0
2017-01-02T00:09:00.448Z,0
2017-01-02T00:10:00.433Z,0
2017-01-02T00:11:00.443Z,0
2017-01-02T00:12:00.447Z,0
2017-01-02T00:13:00.459Z,0
2017-01-02T00:14:00.482Z,0
2017-01-02T00:15:00.481Z,0
2017-01-02T00:16:00.494Z,0
2017-01-02T00:17:00.503Z,0
2017-01-02T00:18:00.513Z,0
2017-01-02T00:19:00.516Z,0
2017-01-02T00:20:00.544Z,0
2017-01-02T00:21:00.538Z,0
2017-01-02T00:22:00.552Z,0
2017-01-02T00:23:00.565Z,0
2017-01-02T00:24:00.573Z,0
2017-01-02T00:25:00.591Z,0
2017-01-02T00:26:00.591Z,0
2017-01-02T00:27:00.608Z,0
2017-01-02T00:28:00.623Z,0
2017-01-02T00:29:00.624Z,0
2017-01-02T00:30:00.641Z,0
2017-01-02T00:31:00.639Z,0
2017-01-02T00:32:00.653Z,0
2017-01-02T00:33:00.671Z,0
2017-01-02T00:34:00.672Z,0
2017-01-02T00:35:00.684Z,0
2017-01-02T00:36:00.703Z,0
2017-01-02T00:37:00.714Z,0
2017-01-02T00:38:00.720Z,0
2017-01-02T00:39:00.724Z,0
2017-01-02T00:40:00.735Z,0
2017-01-02T00:41:00.746Z,0
2017-01-02T00:42:00.758Z,0
2017-01-02T00:43:00.762Z,0
2017-01-02T00:44:00.792Z,0
2017-01-02T00:45:00.781Z,0
2017-01-02T00:46:00.799Z,0
2017-01-02T00:47:00.806Z,0
2017-01-02T00:48:00.818Z,0
2017-01-02T00:49:00.825Z,0
2017-01-02T00:50:00.838Z,0
2017-01-02T00:51:00.851Z,0
2017-01-02T00:52:00.852Z,0
2017-01-02T00:53:00.875Z,0
2017-01-02T00:54:00.881Z,0
2017-01-02T00:55:00.883Z,0
2017-01-02T00:56:00.894Z,0
2017-01-02T00:57:00.903Z,0
2017-01-02T00:58:00.924Z,0
2017-01-02T00:59:00.929Z,0
2017-01-02T01:00:00.941Z,0
2017-01-02T01:01:00.946Z,0
2017-01-02T01:02:00.959Z,0
2017-01-02T01:03:00.966Z,0
2017-01-02T01:04:00.986Z,0
2017-01-02T01:05:00.983Z,0
2017-01-02T01:06:01.014Z,0
2017-01-02T01:07:01.008Z,0
2017-01-02T01:08:01.024Z,0
2017-01-02T01:09:01.027Z,0
2017-01-02T01:10:01.063Z,0
2017-01-02T01:11:01.049Z,0
2017-01-02T01:12:01.085Z,0
2017-01-02T01:13:01.071Z,0
2017-01-02T01:14:01.083Z,0
2017-01-02T01:15:01.092Z,0
2017-01-02T01:16:01.113Z,0
2017-01-02T01:17:01.109Z,0
2017-01-02T01:18:01.137Z,0
2017-01-02T01:19:01.128Z,0
2017-01-02T01:20:01.135Z,0
2017-01-02T01:21:01.153Z,0
2017-01-02T01:22:01.198Z,0
2017-01-02T01:23:01.176Z,0
2017-01-02T01:24:01.187Z,0
2017-01-02T01:25:01.193Z,0
2017-01-02T01:26:01.207Z,0
2017-01-02T01:27:01.216Z,0
2017-01-02T01:28:01.224Z,0
2017-01-02T01:29:01.236Z,0
2017-01-02T01:30:01.251Z,0
2017-01-02T01:31:01.255Z,0
2017-01-02T01:32:01.266Z,0
2017-01-02T01:33:01.271Z,0
2017-01-02T01:34:01.285Z,0
2017-01-02T01:35:01.296Z,0
2017-01-02T01:36:01.304Z,0
2017-01-02T01:37:01.315Z,0
2017-01-02T01:38:01.323Z,0
2017-01-02T01:39:01.337Z,0
2017-01-02T01:40:01.340Z,0
2017-01-02T01:41:01.352Z,0
2017-01-02T01:42:01.365Z,0
2017-01-02T01:43:01.377Z,0
2017-01-02T01:44:01.383Z,0
2017-01-02T01:45:01.435Z,0
2017-01-02T01:46:01.407Z,0
2017-01-02T01:47:01.415Z,0
2017-01-02T01:48:01.452Z,0
2017-01-02T01:49:01.440Z,0
2017-01-02T01:50:01.445Z,0
2017-01-02T01:51:01.458Z,0
2017-01-02T01:52:01.469Z,0
2017-01-02T01:53:01.474Z,0
2017-01-02T01:54:01.488Z,0
2017-01-02T01:55:01.497Z,0
2017-01-02T01:56:01.906Z,0
2017-01-02T01:57:01.522Z,0
2017-01-02T01:58:01.535Z,0
2017-01-02T01:59:01.540Z,0
2017-01-02T02:00:01.554Z,0
2017-01-02T02:01:01.563Z,0
2017-01-02T02:02:01.569Z,0
2017-01-02T02:03:01.579Z,0
2017-01-02T02:04:01.594Z,0
2017-01-02T02:05:01.599Z,0
2017-01-02T02:06:01.630Z,0
2017-01-02T02:07:01.628Z,0
2017-01-02T02:08:01.640Z,0
2017-01-02T02:09:01.643Z,0
2017-01-02T02:10:01.653Z,0
2017-01-02T02:11:01.667Z,0
2017-01-02T02:12:01.687Z,0
2017-01-02T02:13:01.693Z,0
2017-01-02T02:14:01.701Z,0
2017-01-02T02:15:01.716Z,0
2017-01-02T02:16:01.717Z,0
2017-01-02T02:17:01.736Z,0
2017-01-02T02:18:01.738Z,0
2017-01-02T02:19:01.786Z,0
2017-01-02T02:20:01.776Z,0
2017-01-02T02:21:01.824Z,0
2017-01-02T02:22:01.785Z,0
2017-01-02T02:23:01.790Z,0
2017-01-02T02:24:01.823Z,0
2017-01-02T02:25:01.808Z,0
2017-01-02T02:26:01.820Z,0
2017-01-02T02:27:01.832Z,0
2017-01-02T02:28:01.866Z,0
2017-01-02T02:29:01.861Z,0
2017-01-02T02:30:01.865Z,0
2017-01-02T02:31:01.871Z,0
2017-01-02T02:32:01.893Z,0
2017-01-02T02:33:01.895Z,0
2017-01-02T02:34:01.912Z,0
2017-01-02T02:35:01.920Z,0
2017-01-02T02:36:01.930Z,0
2017-01-02T02:37:01.939Z,0
2017-01-02T02:38:01.944Z,0
2017-01-02T02:39:01.955Z,0
2017-01-02T02:40:01.969Z,0
2017-01-02T02:41:01.978Z,0
2017-01-02T02:42:01.987Z,0
2017-01-02T02:43:01.992Z,0
2017-01-02T02:44:02.012Z,0
2017-01-02T02:45:02.053Z,0
2017-01-02T02:46:02.029Z,0
2017-01-02T02:47:02.039Z,0
2017-01-02T02:48:02.050Z,0
2017-01-02T02:49:02.063Z,0
2017-01-02T02:50:02.069Z,0
2017-01-02T02:51:02.086Z,0
2017-01-02T02:52:02.099Z,0
2017-01-02T02:53:02.101Z,0
2017-01-02T02:54:02.113Z,0
2017-01-02T02:55:02.118Z,0
2017-01-02T02:56:02.133Z,0
2017-01-02T02:57:02.140Z,0
2017-01-02T02:58:02.151Z,0
2017-01-02T02:59:02.163Z,0
2017-01-02T03:00:02.205Z,0
2017-01-02T03:01:02.186Z,0
2017-01-02T03:02:02.202Z,0
2017-01-02T03:03:02.203Z,0
2017-01-02T03:04:02.214Z,0
2017-01-02T03:05:02.229Z,0
2017-01-02T03:06:02.235Z,0
2017-01-02T03:07:02.245Z,0
2017-01-02T03:08:02.253Z,0
2017-01-02T03:09:02.269Z,0
2017-01-02T03:10:02.282Z,0
2017-01-02T03:11:02.291Z,0
2017-01-02T03:12:02.304Z,0
2017-01-02T03:13:02.314Z,0
2017-01-02T03:14:02.318Z,0
2017-01-02T03:15:02.363Z,0
2017-01-02T03:16:02.342Z,0
2017-01-02T03:17:02.354Z,0
2017-01-02T03:18:02.364Z,0
2017-01-02T03:19:02.376Z,0
2017-01-02T03:20:02.411Z,0
2017-01-02T03:21:02.426Z,0
2017-01-02T03:22:02.404Z,0
2017-01-02T03:23:02.414Z,0
2017-01-02T03:24:02.421Z,0
2017-01-02T03:25:02.428Z,0
2017-01-02T03:26:02.450Z,0
2017-01-02T03:27:02.459Z,0
2017-01-02T03:28:02.465Z,0
2017-01-02T03:29:02.478Z,0
2017-01-02T03:30:02.485Z,0
2017-01-02T03:31:02.498Z,0
2017-01-02T03:32:02.513Z,0
2017-01-02T03:33:02.515Z,0
2017-01-02T03:34:02.544Z,0
2017-01-02T03:35:02.535Z,0
2017-01-02T03:36:02.548Z,0
2017-01-02T03:37:02.556Z,0
2017-01-02T03:38:02.582Z,0
2017-01-02T03:39:02.577Z,0
2017-01-02T03:40:02.606Z,0
2017-01-02T03:41:02.601Z,0
2017-01-02T03:42:02.641Z,0
2017-01-02T03:43:03.011Z,0
2017-01-02T03:44:02.630Z,0
2017-01-02T03:45:02.654Z,0
2017-01-02T03:46:02.660Z,0
2017-01-02T03:47:02.660Z,0
2017-01-02T03:48:02.672Z,0
2017-01-02T03:49:02.683Z,0
2017-01-02T03:50:02.709Z,0
2017-01-02T03:51:02.712Z,0
2017-01-02T03:52:02.713Z,0
2017-01-02T03:53:02.726Z,0
2017-01-02T03:54:02.743Z,0
2017-01-02T03:55:02.749Z,0
2017-01-02T03:56:03.156Z,0
2017-01-02T03:57:02.771Z,0
2017-01-02T03:58:02.792Z,0
2017-01-02T03:59:02.785Z,0
2017-01-02T04:00:02.800Z,0
2017-01-02T04:01:02.809Z,0
2017-01-02T04:02:02.836Z,0
2017-01-02T04:03:02.826Z,0
2017-01-02T04:04:02.841Z,0
2017-01-02T04:05:02.858Z,0
2017-01-02T04:06:02.868Z,0
2017-01-02T04:07:02.868Z,0
2017-01-02T04:08:02.875Z,0
2017-01-02T04:09:02.888Z,0
2017-01-02T04:10:02.943Z,0
2017-01-02T04:11:02.932Z,0
2017-01-02T04:12:02.917Z,0
2017-01-02T04:13:02.928Z,0
2017-01-02T04:14:02.943Z,0
2017-01-02T04:15:02.946Z,0
2017-01-02T04:16:02.956Z,0
2017-01-02T04:17:02.972Z,0
2017-01-02T04:18:02.993Z,0
2017-01-02T04:19:02.990Z,0
2017-01-02T04:20:03.010Z,0
2017-01-02T04:21:03.011Z,0
2017-01-02T04:22:03.022Z,0
2017-01-02T04:23:03.034Z,0
2017-01-02T04:24:03.054Z,0
2017-01-02T04:25:03.053Z,0
2017-01-02T04:26:03.072Z,0
2017-01-02T04:27:03.072Z,0
2017-01-02T04:28:03.088Z,0
2017-01-02T04:29:03.092Z,0
2017-01-02T04:30:03.097Z,0
2017-01-02T04:31:03.139Z,0
2017-01-02T04:32:03.161Z,0
2017-01-02T04:33:03.133Z,0
2017-01-02T04:34:03.162Z,0
2017-01-02T04:35:03.150Z,0
2017-01-02T04:36:03.168Z,0
2017-01-02T04:37:03.173Z,0
2017-01-02T04:38:03.184Z,0
2017-01-02T04:39:03.192Z,0
2017-01-02T04:40:03.223Z,0
2017-01-02T04:41:03.212Z,0
2017-01-02T04:42:03.230Z,0
2017-01-02T04:43:03.236Z,0
2017-01-02T04:44:03.246Z,0
2017-01-02T04:45:03.256Z,0
2017-01-02T04:46:03.262Z,0
2017-01-02T04:47:03.272Z,0
2017-01-02T04:48:03.333Z,0
2017-01-02T04:49:03.297Z,0
2017-01-02T04:50:03.311Z,0
2017-01-02T04:51:03.312Z,0
2017-01-02T04:52:03.327Z,0
2017-01-02T04:53:03.351Z,0
2017-01-02T04:54:03.343Z,0
2017-01-02T04:55:03.366Z,0
2017-01-02T04:56:03.371Z,0
2017-01-02T04:57:03.376Z,0
2017-01-02T04:58:03.384Z,0
2017-01-02T04:59:03.421Z,0
2017-01-02T05:00:03.403Z,0
2017-01-02T05:01:03.415Z,0
2017-01-02T05:02:03.462Z,0
2017-01-02T05:03:03.462Z,0
2017-01-02T05:04:03.458Z,0
2017-01-02T05:05:03.456Z,0
2017-01-02T05:06:03.888Z,0
2017-01-02T05:07:03.480Z,0
2017-01-02T05:08:03.487Z,0
2017-01-02T05:09:03.521Z,0
2017-01-02T05:10:03.557Z,0
2017-01-02T05:11:03.514Z,0
2017-01-02T05:12:03.538Z,0
2017-01-02T05:13:03.539Z,0
2017-01-02T05:14:03.549Z,0
2017-01-02T05:15:03.560Z,0
2017-01-02T05:16:03.569Z,0
2017-01-02T05:17:03.582Z,0
2017-01-02T05:18:03.602Z,0
2017-01-02T05:19:03.602Z,0
2017-01-02T05:20:03.611Z,0
2017-01-02T05:21:03.620Z,0
2017-01-02T05:22:03.641Z,0
2017-01-02T05:23:03.636Z,0
2017-01-02T05:24:03.653Z,0
2017-01-02T05:25:03.667Z,0
2017-01-02T05:26:03.672Z,0
2017-01-02T05:27:03.680Z,0
2017-01-02T05:28:03.691Z,0
2017-01-02T05:29:03.704Z,0
2017-01-02T05:30:03.711Z,0
2017-01-02T05:31:03.728Z,0
2017-01-02T05:32:03.731Z,0
2017-01-02T05:33:03.744Z,0
2017-01-02T05:34:03.750Z,0
2017-01-02T05:35:03.768Z,0
2017-01-02T05:36:03.777Z,0
2017-01-02T05:37:03.782Z,0
2017-01-02T05:38:03.796Z,0
2017-01-02T05:39:03.806Z,0
2017-01-02T05:40:03.822Z,0
2017-01-02T05:41:03.825Z,0
2017-01-02T05:42:03.834Z,0
2017-01-02T05:43:03.852Z,0
2017-01-02T05:44:03.858Z,0
2017-01-02T05:45:03.863Z,0
2017-01-02T05:46:03.893Z,0
2017-01-02T05:47:03.890Z,0
2017-01-02T05:48:03.897Z,0
2017-01-02T05:49:03.904Z,0
2017-01-02T05:50:03.915Z,0
2017-01-02T05:51:03.931Z,0
2017-01-02T05:52:03.973Z,0
2017-01-02T05:53:03.947Z,0
2017-01-02T05:54:03.970Z,0
2017-01-02T05:55:03.977Z,0
2017-01-02T05:56:03.975Z,0
2017-01-02T05:57:03.996Z,0
2017-01-02T05:58:04.001Z,0
2017-01-02T05:59:04.048Z,0
2017-01-02T06:00:04.022Z,0
2017-01-02T06:01:04.025Z,0
2017-01-02T06:02:04.040Z,0
2017-01-02T06:03:04.071Z,0
2017-01-02T06:04:04.061Z,0
2017-01-02T06:05:04.076Z,0
2017-01-02T06:06:04.077Z,0
2017-01-02T06:07:04.091Z,0
2017-01-02T06:08:04.101Z,0
2017-01-02T06:09:04.111Z,0
2017-01-02T06:10:04.124Z,0
2017-01-02T06:11:04.157Z,0
2017-01-02T06:12:04.143Z,0
2017-01-02T06:13:04.147Z,0
2017-01-02T06:14:04.165Z,0
2017-01-02T06:15:04.202Z,0
2017-01-02T06:16:04.185Z,0
2017-01-02T06:17:04.192Z,0
2017-01-02T06:18:04.206Z,0
2017-01-02T06:19:04.213Z,0
2017-01-02T06:20:04.221Z,0
2017-01-02T06:21:04.228Z,0
2017-01-02T06:22:04.239Z,0
2017-01-02T06:23:04.251Z,0
2017-01-02T06:24:04.269Z,0
2017-01-02T06:25:04.271Z,0
2017-01-02T06:26:04.319Z,0
2017-01-02T06:27:04.293Z,0
2017-01-02T06:28:04.304Z,0
2017-01-02T06:29:04.316Z,0
2017-01-02T06:30:04.323Z,0
2017-01-02T06:31:04.338Z,0
2017-01-02T06:32:04.348Z,0
2017-01-02T06:33:04.357Z,0
2017-01-02T06:34:04.362Z,0
2017-01-02T06:35:04.375Z,0
2017-01-02T06:36:04.386Z,0
2017-01-02T06:37:04.395Z,0
2017-01-02T06:38:04.416Z,0
2017-01-02T06:39:04.421Z,0
2017-01-02T06:40:04.442Z,0
2017-01-02T06:41:04.445Z,0
2017-01-02T06:42:04.456Z,0
2017-01-02T06:43:04.452Z,0
2017-01-02T06:44:04.475Z,0
2017-01-02T06:45:04.485Z,0
2017-01-02T06:46:04.496Z,0
2017-01-02T06:47:04.496Z,0
2017-01-02T06:48:04.928Z,0
2017-01-02T06:49:04.524Z,0
2017-01-02T06:50:04.529Z,0
2017-01-02T06:51:04.542Z,0
2017-01-02T06:52:04.570Z,0
2017-01-02T06:53:04.562Z,0
2017-01-02T06:54:04.571Z,0
2017-01-02T06:55:04.582Z,0
2017-01-02T06:56:04.601Z,0
2017-01-02T06:57:04.603Z,0
2017-01-02T06:58:04.618Z,0
2017-01-02T06:59:04.647Z,0
2017-01-02T07:00:04.631Z,0
2017-01-02T07:01:04.646Z,0
2017-01-02T07:02:04.683Z,0
2017-01-02T07:03:04.669Z,0
2017-01-02T07:04:04.678Z,0
2017-01-02T07:05:04.689Z,0
2017-01-02T07:06:04.702Z,0
2017-01-02T07:07:04.708Z,0
2017-01-02T07:08:04.716Z,0
2017-01-02T07:09:04.723Z,0
2017-01-02T07:10:04.755Z,0
2017-01-02T07:11:04.748Z,0
2017-01-02T07:12:04.767Z,0
2017-01-02T07:13:04.772Z,0
2017-01-02T07:14:04.781Z,0
2017-01-02T07:15:04.792Z,0
2017-01-02T07:16:04.813Z,0
2017-01-02T07:17:04.809Z,0
2017-01-02T07:18:04.853Z,4
2017-01-02T07:19:04.833Z,4
2017-01-02T07:20:04.841Z,4
2017-01-02T07:21:04.851Z,4
2017-01-02T07:22:04.868Z,4
2017-01-02T07:23:04.870Z,0
2017-01-02T07:24:04.897Z,4
2017-01-02T07:25:04.887Z,4
2017-01-02T07:26:04.918Z,4
2017-01-02T07:27:04.910Z,4
2017-01-02T07:28:04.925Z,4
2017-01-02T07:29:04.935Z,8
2017-01-02T07:30:04.957Z,4
2017-01-02T07:31:04.956Z,4
2017-01-02T07:32:04.974Z,4
2017-01-02T07:33:04.971Z,4
2017-01-02T07:34:04.986Z,8
2017-01-02T07:35:05.013Z,8
2017-01-02T07:36:05.005Z,8
2017-01-02T07:37:05.031Z,4
2017-01-02T07:38:05.044Z,8
2017-01-02T07:39:05.041Z,8
2017-01-02T07:40:05.064Z,8
2017-01-02T07:41:05.059Z,8
2017-01-02T07:42:05.079Z,12
2017-01-02T07:43:05.086Z,8
2017-01-02T07:44:05.090Z,12
2017-01-02T07:45:05.102Z,12
2017-01-02T07:46:05.116Z,12
2017-01-02T07:47:05.121Z,12
2017-01-02T07:48:05.142Z,16
2017-01-02T07:49:05.147Z,12
2017-01-02T07:50:05.165Z,16
2017-01-02T07:51:05.165Z,12
2017-01-02T07:52:05.171Z,16
2017-01-02T07:53:05.185Z,16
2017-01-02T07:54:05.214Z,20
2017-01-02T07:55:05.200Z,16
2017-01-02T07:56:05.238Z,20
2017-01-02T07:57:05.221Z,20
2017-01-02T07:58:05.239Z,20
2017-01-02T07:59:05.258Z,20
2017-01-02T08:00:05.264Z,24
2017-01-02T08:01:05.265Z,24
2017-01-02T08:02:05.297Z,28
2017-01-02T08:03:05.314Z,24
2017-01-02T08:04:05.309Z,28
2017-01-02T08:05:05.700Z,28
2017-01-02T08:06:05.324Z,28
2017-01-02T08:07:05.330Z,28
2017-01-02T08:08:05.353Z,28
2017-01-02T08:09:05.346Z,28
2017-01-02T08:10:05.371Z,28
2017-01-02T08:11:05.369Z,28
2017-01-02T08:12:05.397Z,32
2017-01-02T08:13:05.402Z,32
2017-01-02T08:14:05.429Z,32
2017-01-02T08:15:05.412Z,32
2017-01-02T08:16:05.427Z,28
2017-01-02T08:17:05.486Z,28
2017-01-02T08:18:05.462Z,32
2017-01-02T08:19:05.461Z,32
2017-01-02T08:20:05.487Z,28
2017-01-02T08:21:05.477Z,32
2017-01-02T08:22:05.491Z,32
2017-01-02T08:23:05.495Z,36
2017-01-02T08:24:05.518Z,32
2017-01-02T08:25:05.569Z,32
2017-01-02T08:26:05.581Z,40
2017-01-02T08:27:05.540Z,36
2017-01-02T08:28:05.551Z,36
2017-01-02T08:29:05.557Z,32
2017-01-02T08:30:05.576Z,28
2017-01-02T08:31:05.581Z,28
2017-01-02T08:32:05.634Z,24
2017-01-02T08:33:05.608Z,24
2017-01-02T08:34:05.629Z,24
2017-01-02T08:35:05.627Z,24
2017-01-02T08:36:05.635Z,28
2017-01-02T08:37:05.644Z,28
2017-01-02T08:38:05.656Z,28
2017-01-02T08:39:05.668Z,32
2017-01-02T08:40:05.681Z,32
2017-01-02T08:41:05.687Z,36
2017-01-02T08:42:05.702Z,36
2017-01-02T08:43:05.711Z,36
2017-01-02T08:44:05.714Z,36
2017-01-02T08:45:05.734Z,40
2017-01-02T08:46:05.737Z,36
2017-01-02T08:47:05.755Z,36
2017-01-02T08:48:05.776Z,36
2017-01-02T08:49:05.767Z,40
2017-01-02T08:50:05.781Z,40
2017-01-02T08:51:05.796Z,40
2017-01-02T08:52:05.804Z,44
2017-01-02T08:53:06.205Z,40
2017-01-02T08:54:05.821Z,44
2017-01-02T08:55:05.832Z,44
2017-01-02T08:56:05.843Z,40
2017-01-02T08:57:05.862Z,40
2017-01-02T08:58:05.866Z,40
2017-01-02T08:59:05.889Z,36
2017-01-02T09:00:05.889Z,36
2017-01-02T09:01:05.895Z,36
2017-01-02T09:02:05.910Z,32
2017-01-02T09:03:05.932Z,36
2017-01-02T09:04:05.933Z,32
2017-01-02T09:05:05.936Z,28
2017-01-02T09:06:05.959Z,24
2017-01-02T09:07:05.960Z,24
2017-01-02T09:08:05.996Z,24
2017-01-02T09:09:05.979Z,24
2017-01-02T09:10:05.997Z,24
2017-01-02T09:11:06.007Z,24
2017-01-02T09:12:06.009Z,28
2017-01-02T09:13:06.034Z,28
2017-01-02T09:14:06.031Z,28
2017-01-02T09:15:06.042Z,28
2017-01-02T09:16:06.056Z,28
2017-01-02T09:17:06.065Z,40
2017-01-02T09:18:06.473Z,40
2017-01-02T09:19:06.090Z,44
2017-01-02T09:20:06.098Z,40
2017-01-02T09:21:06.113Z,44
2017-01-02T09:22:06.121Z,44
2017-01-02T09:23:06.134Z,48
2017-01-02T09:24:06.147Z,52
2017-01-02T09:25:06.152Z,48
2017-01-02T09:26:06.166Z,48
2017-01-02T09:27:06.171Z,48
2017-01-02T09:28:06.183Z,44
2017-01-02T09:29:06.191Z,52
2017-01-02T09:30:06.201Z,52
2017-01-02T09:31:06.213Z,52
2017-01-02T09:32:06.229Z,48
2017-01-02T09:33:06.239Z,48
2017-01-02T09:34:06.245Z,48
2017-01-02T09:35:06.254Z,48
2017-01-02T09:36:06.268Z,56
2017-01-02T09:37:06.292Z,56
2017-01-02T09:38:06.285Z,60
2017-01-02T09:39:06.298Z,64
2017-01-02T09:40:06.305Z,60
2017-01-02T09:41:06.315Z,68
2017-01-02T09:42:06.326Z,68
2017-01-02T09:43:06.340Z,72
2017-01-02T09:44:06.347Z,76
2017-01-02T09:45:06.371Z,80
2017-01-02T09:46:06.372Z,84
2017-01-02T09:47:06.385Z,88
2017-01-02T09:48:06.390Z,88
2017-01-02T09:49:06.404Z,92
2017-01-02T09:50:06.416Z,96
2017-01-02T09:51:06.427Z,96
2017-01-02T09:52:06.437Z,96
2017-01-02T09:53:06.454Z,100
2017-01-02T09:54:06.459Z,100
2017-01-02T09:55:06.463Z,100
2017-01-02T09:56:06.494Z,100
2017-01-02T09:57:06.498Z,100
2017-01-02T09:58:06.498Z,96
2017-01-02T09:59:06.511Z,100
2017-01-02T10:00:06.521Z,96
2017-01-02T10:01:06.536Z,100
2017-01-02T10:02:06.550Z,96
2017-01-02T10:03:06.561Z,96
2017-01-02T10:04:06.567Z,92
2017-01-02T10:05:06.580Z,92
2017-01-02T10:06:06.583Z,88
2017-01-02T10:07:06.597Z,84
2017-01-02T10:08:06.611Z,80
2017-01-02T10:09:06.627Z,76
2017-01-02T10:10:06.641Z,52
2017-01-02T10:11:06.639Z,52
2017-01-02T10:12:06.655Z,52
2017-01-02T10:13:06.664Z,52
2017-01-02T10:14:06.676Z,52
2017-01-02T10:15:06.678Z,52
2017-01-02T10:16:06.697Z,52
2017-01-02T10:17:06.716Z,44
2017-01-02T10:18:06.718Z,44
2017-01-02T10:19:06.734Z,44
2017-01-02T10:20:06.734Z,44
2017-01-02T10:21:06.743Z,44
2017-01-02T10:22:06.755Z,44
2017-01-02T10:23:06.773Z,52
2017-01-02T10:24:06.783Z,52
2017-01-02T10:25:06.790Z,36
2017-01-02T10:26:06.805Z,32
2017-01-02T10:27:06.806Z,24
2017-01-02T10:28:06.830Z,20
2017-01-02T10:29:07.231Z,20
2017-01-02T10:30:06.847Z,20
2017-01-02T10:31:06.855Z,20
2017-01-02T10:32:06.898Z,24
2017-01-02T10:33:07.266Z,28
2017-01-02T10:34:06.882Z,36
2017-01-02T10:35:07.342Z,48
2017-01-02T10:36:06.906Z,48
2017-01-02T10:37:06.915Z,56
2017-01-02T10:38:06.939Z,64
2017-01-02T10:39:06.955Z,76
2017-01-02T10:40:07.355Z,76
2017-01-02T10:41:06.954Z,76
2017-01-02T10:42:06.973Z,72
2017-01-02T10:43:06.979Z,68
2017-01-02T10:44:06.991Z,64
2017-01-02T10:45:07.003Z,64
2017-01-02T10:46:07.019Z,60
2017-01-02T10:47:07.048Z,60
2017-01-02T10:48:07.055Z,64
2017-01-02T10:49:07.043Z,64
2017-01-02T10:50:07.452Z,64
2017-01-02T10:51:07.064Z,64
2017-01-02T10:52:07.107Z,64
2017-01-02T10:53:07.089Z,60
2017-01-02T10:54:07.111Z,56
2017-01-02T10:55:07.109Z,56
2017-01-02T10:56:07.133Z,60
2017-01-02T10:57:07.133Z,60
2017-01-02T10:58:07.141Z,64
2017-01-02T10:59:07.154Z,64
2017-01-02T11:00:07.205Z,68
2017-01-02T11:01:07.173Z,68
2017-01-02T11:02:07.193Z,68
2017-01-02T11:03:07.192Z,72
2017-01-02T11:04:07.206Z,68
2017-01-02T11:05:07.212Z,76
2017-01-02T11:06:07.227Z,76
2017-01-02T11:07:07.260Z,72
2017-01-02T11:08:07.259Z,72
2017-01-02T11:09:07.259Z,68
2017-01-02T11:10:07.283Z,60
2017-01-02T11:11:07.278Z,64
2017-01-02T11:12:07.697Z,72
2017-01-02T11:13:07.297Z,72
2017-01-02T11:14:07.343Z,76
2017-01-02T11:15:07.324Z,68
2017-01-02T11:16:07.356Z,60
2017-01-02T11:17:07.344Z,68
2017-01-02T11:18:07.375Z,76
2017-01-02T11:19:07.367Z,80
2017-01-02T11:20:07.774Z,72
2017-01-02T11:21:07.381Z,76
2017-01-02T11:22:07.415Z,76
2017-01-02T11:23:07.408Z,76
2017-01-02T11:24:07.431Z,76
2017-01-02T11:25:07.435Z,92
2017-01-02T11:26:07.452Z,92
2017-01-02T11:27:07.450Z,84
2017-01-02T11:28:07.467Z,88
2017-01-02T11:29:08.260Z,84
2017-01-02T11:30:07.510Z,88
2017-01-02T11:31:07.493Z,108
2017-01-02T11:32:07.577Z,108
2017-01-02T11:33:07.515Z,108
2017-01-02T11:34:07.536Z,120
2017-01-02T11:35:07.537Z,112
2017-01-02T11:36:07.951Z,120
2017-01-02T11:37:07.558Z,128
2017-01-02T11:38:07.577Z,144
2017-01-02T11:39:07.573Z,160
2017-01-02T11:40:07.630Z,168
2017-01-02T11:41:07.597Z,172
2017-01-02T11:42:07.610Z,156
2017-01-02T11:43:07.654Z,136
2017-01-02T11:44:07.635Z,132
2017-01-02T11:45:07.642Z,116
2017-01-02T11:46:07.679Z,112
2017-01-02T11:47:07.668Z,144
2017-01-02T11:48:07.685Z,140
2017-01-02T11:49:07.686Z,116
2017-01-02T11:50:07.691Z,124
2017-01-02T11:51:07.702Z,132
2017-01-02T11:52:08.141Z,128
2017-01-02T11:53:07.736Z,104
2017-01-02T11:54:07.755Z,108
2017-01-02T11:55:07.804Z,112
2017-01-02T11:56:07.761Z,96
2017-01-02T11:57:08.166Z,84
2017-01-02T11:58:07.785Z,96
2017-01-02T11:59:07.795Z,84
2017-01-02T12:00:07.808Z,84
2017-01-02T12:01:07.819Z,76
2017-01-02T12:02:07.834Z,68
2017-01-02T12:03:07.830Z,72
2017-01-02T12:04:07.849Z,76
2017-01-02T12:05:07.857Z,72
2017-01-02T12:06:07.874Z,72
2017-01-02T12:07:08.270Z,68
2017-01-02T12:08:07.905Z,64
2017-01-02T12:09:07.903Z,68
2017-01-02T12:10:07.911Z,64
2017-01-02T12:11:07.920Z,60
2017-01-02T12:12:07.935Z,56
2017-01-02T12:13:07.944Z,52
2017-01-02T12:14:07.953Z,56
2017-01-02T12:15:07.969Z,60
2017-01-02T12:16:07.997Z,56
2017-01-02T12:17:07.984Z,56
2017-01-02T12:18:07.995Z,52
2017-01-02T12:19:08.005Z,56
2017-01-02T12:20:08.018Z,68
2017-01-02T12:21:08.028Z,68
2017-01-02T12:22:08.038Z,60
2017-01-02T12:23:08.043Z,68
2017-01-02T12:24:08.069Z,76
2017-01-02T12:25:08.072Z,80
2017-01-02T12:26:08.084Z,84
2017-01-02T12:27:08.093Z,84
2017-01-02T12:28:08.109Z,80
2017-01-02T12:29:08.113Z,76
2017-01-02T12:30:08.125Z,72
2017-01-02T12:31:08.135Z,80
2017-01-02T12:32:08.149Z,80
2017-01-02T12:33:08.159Z,60
2017-01-02T12:34:08.168Z,52
2017-01-02T12:35:08.230Z,52
2017-01-02T12:36:08.188Z,52
2017-01-02T12:37:08.198Z,48
2017-01-02T12:38:08.603Z,36
2017-01-02T12:39:08.222Z,44
2017-01-02T12:40:08.230Z,44
2017-01-02T12:41:08.238Z,36
2017-01-02T12:42:08.251Z,48
2017-01-02T12:43:08.270Z,56
2017-01-02T12:44:08.275Z,72
2017-01-02T12:45:08.290Z,84
2017-01-02T12:46:08.301Z,92
2017-01-02T12:47:08.333Z,108
2017-01-02T12:48:08.315Z,124
2017-01-02T12:49:08.336Z,112
2017-01-02T12:50:08.338Z,112
2017-01-02T12:51:08.356Z,112
2017-01-02T12:52:08.363Z,120
2017-01-02T12:53:08.376Z,120
2017-01-02T12:54:08.383Z,128
2017-01-02T12:55:08.393Z,132
2017-01-02T12:56:08.399Z,136
2017-01-02T12:57:08.410Z,148
2017-01-02T12:58:08.423Z,156
2017-01-02T12:59:08.439Z,168
2017-01-02T13:00:08.888Z,160
2017-01-02T13:01:08.454Z,168
2017-01-02T13:02:08.471Z,172
2017-01-02T13:03:08.477Z,180
2017-01-02T13:04:08.484Z,196
2017-01-02T13:05:08.498Z,220
2017-01-02T13:06:08.535Z,224
2017-01-02T13:07:08.520Z,220
2017-01-02T13:08:08.529Z,212
2017-01-02T13:09:08.542Z,188
2017-01-02T13:10:08.555Z,184
2017-01-02T13:11:08.563Z,168
2017-01-02T13:12:08.580Z,132
2017-01-02T13:13:08.581Z,124
2017-01-02T13:14:08.603Z,108
2017-01-02T13:15:08.634Z,92
2017-01-02T13:16:08.624Z,84
2017-01-02T13:17:08.629Z,80
2017-01-02T13:18:08.643Z,80
2017-01-02T13:19:08.649Z,84
2017-01-02T13:20:08.665Z,80
2017-01-02T13:21:08.675Z,84
2017-01-02T13:22:08.688Z,76
2017-01-02T13:23:08.694Z,80
2017-01-02T13:24:08.707Z,80
2017-01-02T13:25:08.716Z,88
2017-01-02T13:26:08.722Z,76
2017-01-02T13:27:08.732Z,68
2017-01-02T13:28:08.748Z,60
2017-01-02T13:29:08.765Z,60
2017-01-02T13:30:08.771Z,64
2017-01-02T13:31:08.790Z,60
2017-01-02T13:32:08.787Z,60
2017-01-02T13:33:08.800Z,56
2017-01-02T13:34:08.808Z,64
2017-01-02T13:35:08.826Z,64
2017-01-02T13:36:08.845Z,64
2017-01-02T13:37:08.852Z,68
2017-01-02T13:38:08.856Z,72
2017-01-02T13:39:08.868Z,72
2017-01-02T13:40:08.978Z,76
2017-01-02T13:41:08.899Z,76
2017-01-02T13:42:08.900Z,72
2017-01-02T13:43:08.912Z,72
2017-01-02T13:44:08.919Z,72
2017-01-02T13:45:08.933Z,64
2017-01-02T13:46:08.944Z,64
2017-01-02T13:47:08.953Z,68
2017-01-02T13:48:08.963Z,68
2017-01-02T13:49:08.971Z,64
2017-01-02T13:50:08.984Z,64
2017-01-02T13:51:08.995Z,68
2017-01-02T13:52:09.004Z,64
2017-01-02T13:53:09.013Z,68
2017-01-02T13:54:09.034Z,64
2017-01-02T13:55:09.451Z,60
2017-01-02T13:56:09.051Z,64
2017-01-02T13:57:09.062Z,72
2017-01-02T13:58:09.066Z,64
2017-01-02T13:59:09.079Z,64
2017-01-02T14:00:09.090Z,60
2017-01-02T14:01:09.102Z,48
2017-01-02T14:02:09.115Z,52
2017-01-02T14:03:09.125Z,52
2017-01-02T14:04:09.138Z,48
2017-01-02T14:05:09.144Z,48
2017-01-02T14:06:09.159Z,44
2017-01-02T14:07:09.169Z,44
2017-01-02T14:08:09.183Z,40
2017-01-02T14:09:09.188Z,40
2017-01-02T14:10:09.199Z,40
2017-01-02T14:11:09.211Z,40
2017-01-02T14:12:09.217Z,44
2017-01-02T14:13:09.232Z,44
2017-01-02T14:14:09.250Z,40
2017-01-02T14:15:09.253Z,40
2017-01-02T14:16:09.264Z,36
2017-01-02T14:17:09.272Z,32
2017-01-02T14:18:09.288Z,32
2017-01-02T14:19:09.301Z,24
2017-01-02T14:20:09.307Z,24
2017-01-02T14:21:09.319Z,24
2017-01-02T14:22:09.338Z,24
2017-01-02T14:23:09.340Z,24
2017-01-02T14:24:09.352Z,24
2017-01-02T14:25:09.362Z,24
2017-01-02T14:26:09.378Z,20
2017-01-02T14:27:09.388Z,24
2017-01-02T14:28:09.400Z,28
2017-01-02T14:29:09.411Z,28